Time;durP1;ratioP1;P1;durP2;ratioP2;P2;SDS_P1;SDS_P2;PMS_P1;PMS_P2;Temp;Humidity;BMP_temperature;BMP_pressure;BME280_temperature;BME280_humidity;BME280_pressure;Samples;Min_cycle;Max_cycle;Signal;HPM_P1;HPM_P2
2021/12/17 00:00:58;;;;;;;2.92;2.13;;;17.60;53.90;;;;;;5130056;27;20035;-63
2021/12/17 00:03:35;;;;;;;4.20;2.33;;;17.60;53.90;;;;;;5129865;27;20040;-65
2021/12/17 00:06:13;;;;;;;3.50;2.45;;;17.60;53.90;;;;;;5129813;27;20501;-64
2021/12/17 00:08:43;;;;;;;3.13;2.03;;;17.60;54.00;;;;;;5129600;27;20046;-64
2021/12/17 00:11:10;;;;;;;2.92;2.33;;;17.60;54.00;;;;;;5128188;28;20483;-64
2021/12/17 00:13:37;;;;;;;3.70;2.28;;;17.60;54.00;;;;;;5128159;28;20109;-64
2021/12/17 00:16:12;;;;;;;3.00;2.22;;;17.60;54.00;;;;;;5129735;27;20046;-64
2021/12/17 00:18:51;;;;;;;3.33;2.38;;;17.60;54.00;;;;;;5129495;27;20039;-64
2021/12/17 00:48:59;;;;;;;2.53;1.85;;;17.50;54.10;;;;;;5128780;28;20079;-63
2021/12/17 00:52:02;;;;;;;2.10;1.63;;;17.50;54.10;;;;;;5127465;28;20108;-63
2021/12/17 00:54:22;;;;;;;2.88;2.00;;;17.50;54.10;;;;;;5127146;28;20062;-62
2021/12/17 00:56:50;;;;;;;2.70;1.65;;;17.50;54.10;;;;;;5114933;28;20360;-64
2021/12/17 00:59:16;;;;;;;2.97;1.92;;;17.50;54.10;;;;;;5113652;28;20052;-64
2021/12/17 01:01:43;;;;;;;2.53;1.42;;;17.50;54.10;;;;;;5115387;28;20114;-63
2021/12/17 01:04:13;;;;;;;2.53;1.52;;;17.50;54.20;;;;;;5115005;28;20066;-64
2021/12/17 01:06:39;;;;;;;2.40;1.65;;;17.40;54.10;;;;;;5115122;28;20035;-63
2021/12/17 01:09:07;;;;;;;2.22;1.48;;;17.40;54.10;;;;;;5113921;28;20490;-64
2021/12/17 01:11:34;;;;;;;2.13;1.80;;;17.40;54.10;;;;;;5114469;28;20443;-64
2021/12/17 01:13:59;;;;;;;2.38;1.40;;;17.40;54.20;;;;;;5113227;28;20039;-64
2021/12/17 01:16:26;;;;;;;1.70;1.00;;;17.40;54.10;;;;;;5113589;28;20101;-65
2021/12/17 01:35:29;;;;;;;2.55;1.50;;;17.40;55.00;;;;;;5152742;27;20042;-63
2021/12/17 01:43:43;;;;;;;2.22;1.50;;;17.40;54.30;;;;;;5142983;27;20420;-63
2021/12/17 01:46:10;;;;;;;2.53;1.63;;;17.40;54.30;;;;;;5108705;28;20044;-64
2021/12/17 01:48:57;;;;;;;2.15;1.27;;;17.40;54.30;;;;;;5108509;28;20040;-63
2021/12/17 01:57:00;;;;;;;2.03;1.65;;;17.30;54.30;;;;;;5108065;28;20055;-64
2021/12/17 01:59:34;;;;;;;3.45;1.38;;;17.30;54.30;;;;;;5109435;28;20028;-65
2021/12/17 02:02:05;;;;;;;2.55;1.33;;;17.30;54.40;;;;;;5109292;28;20044;-64
2021/12/17 02:04:32;;;;;;;2.67;1.35;;;17.30;54.40;;;;;;5108202;28;20191;-65
2021/12/17 02:07:03;;;;;;;2.22;1.35;;;17.30;54.40;;;;;;5109387;28;20036;-64
2021/12/17 02:10:04;;;;;;;1.70;1.10;;;17.30;54.40;;;;;;5109341;28;20039;-64
2021/12/17 02:29:41;;;;;;;1.35;0.57;;;17.30;54.40;;;;;;5109518;27;20109;-63
2021/12/17 02:32:08;;;;;;;1.33;0.95;;;17.80;53.70;;;;;;5107938;28;20596;-63
2021/12/17 02:37:27;;;;;;;0.82;0.47;;;20.30;48.60;;;;;;5108463;28;20056;-63
2021/12/17 02:45:32;;;;;;;1.30;0.70;;;22.80;43.70;;;;;;5130209;27;20688;-63
2021/12/17 02:45:42;;;;;;;1.00;0.30;;;23.70;41.00;;;;;;5128973;28;20115;-63
2021/12/17 02:48:24;;;;;;;1.17;0.60;;;24.40;39.70;;;;;;5128654;28;20043;-63
2021/12/17 02:50:56;;;;;;;1.20;0.60;;;24.90;38.50;;;;;;5128679;27;20043;-63
2021/12/17 02:53:23;;;;;;;0.80;0.32;;;25.30;37.80;;;;;;5129367;27;20402;-65
2021/12/17 02:55:54;;;;;;;1.90;0.50;;;25.70;37.30;;;;;;5130142;27;20104;-63
2021/12/17 02:58:23;;;;;;;1.05;0.40;;;25.90;36.80;;;;;;5129906;27;20068;-63
2021/12/17 03:00:49;;;;;;;1.30;0.50;;;26.10;36.60;;;;;;5128507;28;20360;-63
2021/12/17 03:03:16;;;;;;;1.38;0.38;;;26.10;36.40;;;;;;5129434;27;20039;-63
2021/12/17 03:05:51;;;;;;;0.82;0.32;;;26.10;36.40;;;;;;5129926;27;20360;-63
2021/12/17 03:08:18;;;;;;;0.60;0.30;;;25.80;36.70;;;;;;5128400;28;20039;-62
2021/12/17 03:10:47;;;;;;;0.77;0.35;;;25.70;36.90;;;;;;5128221;28;20054;-63
2021/12/17 03:13:14;;;;;;;0.80;0.50;;;25.40;37.10;;;;;;5128025;28;20654;-63
2021/12/17 03:19:02;;;;;;;1.02;0.43;;;24.80;38.00;;;;;;5130158;27;20354;-63
2021/12/17 03:23:51;;;;;;;1.17;0.40;;;24.20;39.10;;;;;;5130002;28;20119;-63
2021/12/17 03:26:20;;;;;;;1.65;0.50;;;23.90;39.60;;;;;;5128826;28;20566;-62
2021/12/17 03:28:49;;;;;;;0.90;0.40;;;23.60;40.00;;;;;;5128939;28;20381;-63
2021/12/17 03:31:16;;;;;;;1.08;0.30;;;23.40;40.50;;;;;;5128584;28;20088;-63
2021/12/17 03:33:45;;;;;;;0.70;0.30;;;23.20;40.90;;;;;;5128231;28;20082;-62
2021/12/17 03:36:14;;;;;;;0.80;0.43;;;23.00;41.30;;;;;;5128638;28;20051;-63
2021/12/17 03:38:43;;;;;;;0.90;0.40;;;22.80;41.60;;;;;;5128841;28;20039;-63
2021/12/17 03:44:02;;;;;;;0.63;0.32;;;22.60;42.20;;;;;;5088728;27;20333;-63
2021/12/17 03:46:28;;;;;;;0.90;0.50;;;22.50;42.30;;;;;;5067957;28;20553;-63
2021/12/17 03:48:59;;;;;;;1.33;0.68;;;22.50;42.30;;;;;;5067648;28;20044;-65
2021/12/17 03:51:25;;;;;;;0.82;0.30;;;22.50;42.30;;;;;;5067885;28;20389;-63
2021/12/17 03:53:54;;;;;;;1.55;0.30;;;22.60;42.10;;;;;;5067273;28;20048;-63
2021/12/17 03:56:21;;;;;;;0.55;0.25;;;22.70;41.80;;;;;;5068904;28;20044;-63
2021/12/17 03:58:49;;;;;;;1.10;0.45;;;22.80;41.60;;;;;;5067872;28;20056;-63
2021/12/17 04:01:14;;;;;;;1.20;0.40;;;23.00;41.20;;;;;;5067497;28;20047;-63
2021/12/17 04:03:40;;;;;;;0.50;0.22;;;23.20;40.90;;;;;;5067525;28;20131;-63
2021/12/17 04:06:06;;;;;;;0.85;0.30;;;23.30;40.50;;;;;;5067559;28;20032;-63
2021/12/17 04:08:32;;;;;;;0.80;0.30;;;23.50;40.30;;;;;;5067632;28;20041;-63
2021/12/17 04:11:07;;;;;;;0.73;0.30;;;23.60;40.00;;;;;;5068693;28;20033;-63
2021/12/17 04:13:37;;;;;;;0.88;0.40;;;23.80;39.80;;;;;;5066928;28;20048;-63
2021/12/17 04:16:07;;;;;;;0.80;0.25;;;23.90;39.60;;;;;;5068446;28;20045;-63
2021/12/17 04:18:39;;;;;;;0.82;0.22;;;23.90;40.20;;;;;;5068526;28;20123;-63
2021/12/17 04:21:14;;;;;;;0.80;0.47;;;23.90;39.30;;;;;;5067118;28;20477;-64
2021/12/17 04:23:42;;;;;;;1.33;0.65;;;23.90;39.30;;;;;;5067663;28;20045;-63
2021/12/17 04:26:08;;;;;;;1.00;0.50;;;23.90;39.30;;;;;;5067324;28;20135;-63
2021/12/17 04:28:42;;;;;;;0.95;0.20;;;23.90;39.40;;;;;;5067167;28;20118;-63
2021/12/17 04:31:08;;;;;;;0.90;0.30;;;23.90;39.30;;;;;;5068057;28;20041;-63
2021/12/17 04:33:34;;;;;;;1.67;0.80;;;23.90;39.30;;;;;;5067830;28;20041;-63
2021/12/17 04:35:59;;;;;;;1.42;0.30;;;23.90;39.30;;;;;;5067812;28;20043;-63
2021/12/17 04:38:27;;;;;;;1.00;0.30;;;23.80;39.40;;;;;;5066998;28;20123;-63
2021/12/17 04:40:53;;;;;;;0.75;0.30;;;23.80;39.50;;;;;;5068008;28;20044;-64
2021/12/17 04:43:49;;;;;;;0.60;0.20;;;23.70;39.50;;;;;;5065968;28;20065;-63
2021/12/17 04:46:26;;;;;;;0.80;0.32;;;23.80;39.60;;;;;;5064590;28;20721;-63
2021/12/17 04:57:27;;;;;;;1.45;0.50;;;23.50;39.90;;;;;;5053137;28;20115;-65
2021/12/17 04:59:53;;;;;;;0.95;0.55;;;23.50;40.00;;;;;;5053472;28;20045;-65
2021/12/17 05:02:19;;;;;;;1.00;0.40;;;23.40;40.00;;;;;;5054306;28;20076;-64
2021/12/17 05:04:45;;;;;;;1.33;0.63;;;23.40;40.20;;;;;;5054412;28;20511;-65
2021/12/17 05:07:13;;;;;;;0.90;0.47;;;23.40;40.30;;;;;;5053127;28;20119;-64
2021/12/17 05:09:52;;;;;;;0.90;0.40;;;23.30;40.30;;;;;;5054282;28;20040;-63
2021/12/17 05:20:52;;;;;;;1.27;0.40;;;23.30;40.50;;;;;;5053056;28;20612;-65
2021/12/17 05:23:26;;;;;;;1.17;0.70;;;23.30;40.40;;;;;;5053791;28;20053;-65
2021/12/17 05:25:52;;;;;;;1.38;0.57;;;23.30;40.40;;;;;;5054034;28;20080;-65
2021/12/17 05:28:21;;;;;;;1.85;0.80;;;23.30;40.40;;;;;;5036452;28;20076;-65
2021/12/17 05:30:48;;;;;;;1.52;0.55;;;23.30;40.40;;;;;;5052564;28;20071;-65
2021/12/17 05:33:15;;;;;;;1.88;0.60;;;23.30;40.40;;;;;;5052690;28;20048;-63
2021/12/17 05:35:42;;;;;;;1.52;0.70;;;23.30;40.40;;;;;;5052216;28;20370;-65
2021/12/17 05:38:09;;;;;;;1.05;0.52;;;23.30;40.30;;;;;;5052479;28;20127;-65
2021/12/17 05:40:37;;;;;;;2.05;0.60;;;23.30;40.40;;;;;;5053749;28;20032;-65
2021/12/17 05:43:06;;;;;;;1.08;0.60;;;23.30;40.30;;;;;;5052071;28;20049;-63
2021/12/17 05:45:36;;;;;;;1.17;0.60;;;23.30;40.60;;;;;;5052439;28;20124;-63
2021/12/17 05:48:07;;;;;;;1.38;0.60;;;23.30;40.40;;;;;;5053585;28;20045;-65
2021/12/17 05:50:38;;;;;;;1.30;0.50;;;23.30;40.40;;;;;;5052460;28;20389;-65
2021/12/17 05:53:05;;;;;;;1.40;0.50;;;23.20;40.40;;;;;;5053182;28;20485;-65
2021/12/17 05:55:30;;;;;;;1.38;0.70;;;23.20;41.20;;;;;;5051695;28;20166;-63
2021/12/17 05:57:56;;;;;;;2.80;0.60;;;23.20;40.50;;;;;;5053518;28;20119;-64
2021/12/17 06:00:23;;;;;;;2.03;0.88;;;23.20;41.30;;;;;;5053422;28;20400;-63
2021/12/17 06:02:51;;;;;;;1.35;0.57;;;23.10;40.60;;;;;;5052095;28;20183;-65
2021/12/17 06:05:17;;;;;;;1.27;0.60;;;23.10;40.70;;;;;;5052371;28;20531;-62
2021/12/17 06:07:43;;;;;;;1.45;0.80;;;23.00;40.80;;;;;;5053131;28;20037;-64
2021/12/17 06:10:09;;;;;;;1.20;0.55;;;23.00;40.80;;;;;;5051778;28;20131;-63
2021/12/17 06:12:36;;;;;;;0.90;0.40;;;23.00;41.00;;;;;;5051709;28;20048;-65
2021/12/17 06:15:05;;;;;;;1.90;0.40;;;22.90;41.00;;;;;;5052564;28;20076;-62
2021/12/17 06:17:34;;;;;;;1.30;0.60;;;22.90;41.00;;;;;;5052989;28;20489;-63
2021/12/17 06:20:00;;;;;;;1.58;0.82;;;22.80;41.10;;;;;;5051676;28;20039;-63
2021/12/17 06:22:25;;;;;;;0.93;0.55;;;22.80;41.20;;;;;;5052690;28;20036;-65
2021/12/17 06:24:54;;;;;;;1.27;0.47;;;22.80;41.20;;;;;;5052939;28;20473;-63
2021/12/17 06:27:21;;;;;;;1.35;0.40;;;22.80;41.30;;;;;;5052840;28;20048;-65
2021/12/17 06:29:47;;;;;;;1.25;0.47;;;22.80;41.20;;;;;;5052822;28;20037;-65
2021/12/17 06:32:13;;;;;;;0.85;0.50;;;22.70;41.20;;;;;;5051156;28;20114;-63
2021/12/17 06:34:39;;;;;;;1.30;0.50;;;22.80;41.20;;;;;;5052024;28;20516;-65
2021/12/17 06:37:05;;;;;;;0.90;0.43;;;22.80;41.10;;;;;;5050459;28;20068;-65
2021/12/17 06:39:32;;;;;;;1.48;0.80;;;22.80;41.90;;;;;;5048157;28;20056;-64
2021/12/17 06:41:58;;;;;;;2.97;0.80;;;22.90;41.10;;;;;;5052435;28;20057;-66
2021/12/17 06:44:26;;;;;;;1.27;0.57;;;22.90;41.20;;;;;;5050027;28;20131;-66
2021/12/17 06:55:21;;;;;;;3.13;1.25;;;22.50;42.60;;;;;;5085895;28;20044;-64
2021/12/17 06:58:30;;;;;;;4.07;1.67;;;22.20;43.00;;;;;;5086647;28;20655;-66
2021/12/17 07:06:11;;;;;;;2.60;1.27;;;21.60;44.60;;;;;;5086546;28;20487;-63
2021/12/17 07:23:13;;;;;;;2.13;0.90;;;21.10;46.40;;;;;;5054241;28;20428;-67
2021/12/17 07:28:14;;;;;;;3.95;1.25;;;20.90;46.70;;;;;;5054884;28;20053;-64
2021/12/17 07:33:44;;;;;;;5.40;3.95;;;20.70;46.80;;;;;;5045309;28;20048;-66
2021/12/17 07:36:14;;;;;;;6.95;3.72;;;20.50;46.80;;;;;;5052845;28;20087;-66
2021/12/17 07:38:48;;;;;;;6.00;4.63;;;20.40;46.90;;;;;;5049765;28;20432;-65
2021/12/17 07:41:14;;;;;;;10.88;5.13;;;20.30;47.00;;;;;;5048376;28;20045;-66
2021/12/17 07:43:50;;;;;;;10.27;5.45;;;20.20;47.10;;;;;;5048091;28;20963;-64
2021/12/17 07:46:16;;;;;;;7.28;4.63;;;20.20;47.90;;;;;;5050557;28;20033;-66
2021/12/17 07:48:42;;;;;;;5.70;4.40;;;20.20;47.20;;;;;;5057155;28;20040;-67
2021/12/17 07:51:11;;;;;;;4.43;3.63;;;20.40;46.90;;;;;;5070057;28;20033;-64
2021/12/17 07:53:37;;;;;;;5.18;2.47;;;21.00;46.10;;;;;;5053190;28;20059;-64
2021/12/17 07:56:08;;;;;;;3.28;1.60;;;21.70;44.90;;;;;;5052659;28;20041;-65
2021/12/17 07:58:34;;;;;;;3.88;1.90;;;22.30;44.30;;;;;;5048027;28;20049;-65
2021/12/17 08:01:00;;;;;;;2.80;0.90;;;22.70;43.80;;;;;;5066285;28;20095;-64
2021/12/17 08:03:26;;;;;;;3.40;0.88;;;23.10;43.30;;;;;;5052449;28;20037;-65
2021/12/17 08:05:53;;;;;;;3.78;0.80;;;23.20;43.20;;;;;;5067012;28;20049;-67
2021/12/17 08:08:19;;;;;;;3.60;0.80;;;23.40;43.00;;;;;;5050863;28;20048;-66
2021/12/17 08:10:49;;;;;;;4.75;0.57;;;23.50;42.80;;;;;;5051525;28;20749;-67
2021/12/17 08:13:21;;;;;;;2.70;0.80;;;23.70;42.60;;;;;;5048664;28;20048;-64
2021/12/17 08:19:06;;;;;;;2.00;0.60;;;23.40;43.00;;;;;;5047016;28;20948;-66
2021/12/17 08:25:16;;;;;;;1.58;0.50;;;23.10;43.90;;;;;;5051988;28;20128;-65
2021/12/17 08:29:52;;;;;;;2.50;0.50;;;22.70;44.80;;;;;;5133186;27;1157518;-63
2021/12/17 08:32:18;;;;;;;1.90;0.50;;;22.50;45.30;;;;;;5143937;27;20046;-65
2021/12/17 08:34:45;;;;;;;5.78;0.40;;;22.30;45.40;;;;;;5135377;27;20042;-65
2021/12/17 08:37:11;;;;;;;1.27;0.50;;;22.20;45.70;;;;;;5132665;27;20637;-63
2021/12/17 08:39:38;;;;;;;3.17;0.50;;;22.10;46.00;;;;;;5154779;27;20030;-65
2021/12/17 08:42:04;;;;;;;4.40;0.68;;;21.90;47.00;;;;;;5136601;27;20049;-64
2021/12/17 08:44:30;;;;;;;2.08;0.47;;;21.70;46.60;;;;;;5155692;27;20031;-64
2021/12/17 08:46:56;;;;;;;2.53;0.40;;;21.50;47.00;;;;;;5153708;27;20400;-65
2021/12/17 08:49:25;;;;;;;6.60;0.40;;;21.40;47.50;;;;;;5155852;27;20043;-63
2021/12/17 08:51:51;;;;;;;5.72;0.40;;;21.30;48.00;;;;;;5133373;27;20512;-65
2021/12/17 08:54:17;;;;;;;3.78;0.32;;;21.10;48.40;;;;;;5149446;27;20538;-65
2021/12/17 08:56:49;;;;;;;2.63;0.47;;;21.00;48.90;;;;;;5150444;27;20027;-65
2021/12/17 08:59:17;;;;;;;1.20;0.32;;;21.00;49.60;;;;;;5154001;27;20134;-65
2021/12/17 09:01:45;;;;;;;2.53;0.45;;;20.90;50.00;;;;;;5120705;27;20046;-65
2021/12/17 09:04:11;;;;;;;2.13;0.40;;;20.80;50.30;;;;;;5153939;27;20046;-65
2021/12/17 09:06:37;;;;;;;1.13;0.47;;;20.70;50.40;;;;;;5151837;27;20113;-65
2021/12/17 09:09:03;;;;;;;3.30;0.40;;;20.70;50.70;;;;;;5138897;27;20038;-64
2021/12/17 09:11:30;;;;;;;3.10;0.55;;;20.60;51.00;;;;;;5138204;27;20049;-64
2021/12/17 09:13:58;;;;;;;2.92;0.40;;;20.50;51.50;;;;;;5156240;27;20027;-63
2021/12/17 09:16:24;;;;;;;1.63;0.28;;;20.50;51.80;;;;;;5138079;27;20050;-63
2021/12/17 09:18:52;;;;;;;9.68;2.08;;;20.50;51.90;;;;;;5156300;27;20041;-63
2021/12/17 09:21:18;;;;;;;3.75;1.70;;;20.40;51.40;;;;;;5135308;27;20145;-64
2021/12/17 09:23:45;;;;;;;5.68;2.88;;;20.40;51.00;;;;;;5131824;27;20079;-63
2021/12/17 09:26:15;;;;;;;5.45;2.85;;;20.30;50.50;;;;;;5152511;27;20182;-64
2021/12/17 09:28:41;;;;;;;7.72;2.47;;;20.30;50.00;;;;;;5144873;27;20665;-64
2021/12/17 09:31:11;;;;;;;5.95;3.13;;;20.30;49.70;;;;;;5132325;27;20051;-65
2021/12/17 09:33:38;;;;;;;3.22;2.80;;;20.20;49.40;;;;;;5134183;27;20050;-65
2021/12/17 09:36:07;;;;;;;8.27;2.88;;;20.20;49.30;;;;;;5134223;27;20085;-64
2021/12/17 09:38:33;;;;;;;2.92;2.05;;;20.20;49.30;;;;;;5138512;27;20042;-64
2021/12/17 09:40:59;;;;;;;5.45;1.88;;;20.40;49.30;;;;;;5121890;27;20376;-65
2021/12/17 09:43:26;;;;;;;6.47;2.67;;;20.90;48.90;;;;;;5120295;27;20081;-64
2021/12/17 09:45:52;;;;;;;4.30;2.97;;;21.30;47.80;;;;;;5124407;27;20045;-64
2021/12/17 09:48:19;;;;;;;6.13;2.70;;;21.40;47.00;;;;;;5121001;27;20042;-65
2021/12/17 09:50:45;;;;;;;4.80;3.00;;;21.40;46.50;;;;;;5136308;27;20038;-65
2021/12/17 09:53:11;;;;;;;3.45;2.70;;;21.40;46.20;;;;;;5140501;27;20099;-65
2021/12/17 09:55:37;;;;;;;3.63;2.60;;;21.40;46.20;;;;;;5127007;27;20042;-64
2021/12/17 09:58:03;;;;;;;5.75;3.55;;;21.30;46.00;;;;;;5138443;27;20058;-65
2021/12/17 10:00:29;;;;;;;4.20;2.55;;;21.40;45.90;;;;;;5119759;27;20099;-66
2021/12/17 10:02:55;;;;;;;5.32;1.52;;;21.80;45.40;;;;;;5135302;27;20039;-66
2021/12/17 10:05:27;;;;;;;3.10;1.00;;;22.30;44.50;;;;;;5138164;27;20049;-66
2021/12/17 10:07:58;;;;;;;4.15;1.10;;;22.80;43.80;;;;;;5139220;27;20734;-64
2021/12/17 10:10:42;;;;;;;5.30;1.25;;;23.30;43.00;;;;;;5142102;27;20082;-66
2021/12/17 10:13:20;;;;;;;1.35;0.63;;;23.70;42.50;;;;;;5138233;27;20031;-66
2021/12/17 10:15:49;;;;;;;2.45;0.50;;;23.80;41.80;;;;;;5098656;27;20122;-64
2021/12/17 10:18:29;;;;;;;2.78;0.50;;;23.90;41.70;;;;;;5119392;27;20047;-66
2021/12/17 10:20:56;;;;;;;;;;;23.70;41.80;;;;;;5124842;27;20184;-65
2021/12/17 10:23:23;;;;;;;2.45;0.50;;;23.60;42.70;;;;;;5134533;27;20002;-65
2021/12/17 10:25:49;;;;;;;4.18;0.60;;;23.30;43.00;;;;;;5113684;27;20051;-64
2021/12/17 10:28:16;;;;;;;3.20;0.93;;;23.10;43.70;;;;;;5129518;27;20047;-65
2021/12/17 10:30:46;;;;;;;4.22;0.60;;;23.00;44.20;;;;;;5120523;27;20121;-63
2021/12/17 10:33:16;;;;;;;5.10;0.63;;;22.70;44.60;;;;;;5122893;27;20632;-64
2021/12/17 10:35:45;;;;;;;8.45;0.88;;;22.50;45.40;;;;;;5137934;27;20038;-63
2021/12/17 10:38:15;;;;;;;7.50;0.60;;;22.30;46.10;;;;;;5111634;27;20055;-62
2021/12/17 10:40:53;;;;;;;3.42;0.57;;;22.10;46.70;;;;;;5134110;27;20051;-64
2021/12/17 10:43:27;;;;;;;3.65;0.75;;;21.90;47.30;;;;;;5116909;27;20121;-64
2021/12/17 10:46:01;;;;;;;6.72;0.80;;;21.70;47.70;;;;;;5114846;27;20406;-65
2021/12/17 10:53:54;;;;;;;9.40;1.00;;;21.40;48.30;;;;;;5111183;27;20477;-62
2021/12/17 10:56:24;;;;;;;4.35;0.95;;;21.20;48.60;;;;;;5087777;28;20386;-62
2021/12/17 10:59:07;;;;;;;1.95;0.70;;;21.10;48.80;;;;;;5091919;28;20043;-64
2021/12/17 11:07:05;;;;;;;2.25;0.77;;;20.90;49.20;;;;;;5109464;27;1179111;-63
2021/12/17 11:14:51;;;;;;;5.43;1.27;;;20.70;49.60;;;;;;5101453;27;20858;-61
2021/12/17 11:17:21;;;;;;;2.92;1.67;;;20.50;49.80;;;;;;5116734;28;20043;-62
2021/12/17 11:19:50;;;;;;;4.63;3.17;;;20.40;49.70;;;;;;5103203;28;20044;-62
2021/12/17 11:22:17;;;;;;;4.45;2.78;;;20.30;49.30;;;;;;5098333;28;20118;-62
2021/12/17 11:24:43;;;;;;;4.10;2.65;;;20.30;48.90;;;;;;5095300;28;20562;-62
2021/12/17 11:27:13;;;;;;;3.10;2.70;;;20.30;48.70;;;;;;5096883;28;20047;-63
2021/12/17 11:29:40;;;;;;;2.92;2.53;;;20.30;48.60;;;;;;5133867;27;20060;-63
2021/12/17 11:32:06;;;;;;;5.82;2.90;;;20.30;48.30;;;;;;5136934;27;20043;-62
2021/12/17 11:34:34;;;;;;;6.47;3.05;;;20.50;48.10;;;;;;5104056;28;20118;-62
2021/12/17 11:37:02;;;;;;;4.38;3.40;;;20.70;47.70;;;;;;5096395;28;20123;-62
2021/12/17 11:39:31;;;;;;;3.38;2.92;;;20.90;47.00;;;;;;5094278;28;20040;-62
2021/12/17 11:44:42;;;;;;;7.35;2.40;;;21.10;46.50;;;;;;5104901;27;20430;-63
2021/12/17 11:47:12;;;;;;;5.65;2.78;;;21.60;45.10;;;;;;5102106;28;20040;-61
2021/12/17 11:49:49;;;;;;;3.53;2.53;;;21.90;44.80;;;;;;5089540;28;20036;-62
2021/12/17 11:52:36;;;;;;;5.53;2.60;;;22.00;44.50;;;;;;5081812;28;20107;-63
2021/12/17 11:55:23;;;;;;;2.92;2.63;;;22.00;44.40;;;;;;5090653;28;20271;-61
2021/12/17 11:57:51;;;;;;;2.83;2.53;;;21.90;44.40;;;;;;5090646;28;20032;-62
2021/12/17 12:00:21;;;;;;;3.85;2.00;;;21.90;44.50;;;;;;5086167;28;20086;-62
2021/12/17 12:02:50;;;;;;;6.80;1.90;;;21.80;44.60;;;;;;5105126;28;20055;-62
2021/12/17 12:08:26;;;;;;;2.67;1.08;;;22.50;44.20;;;;;;5071064;28;20048;-64
2021/12/17 12:13:52;;;;;;;1.63;0.75;;;22.80;43.30;;;;;;5059215;27;21058;-63
2021/12/17 12:16:21;;;;;;;2.03;0.57;;;22.80;43.10;;;;;;5049468;28;20049;-63
2021/12/17 12:21:33;;;;;;;2.47;0.90;;;22.60;43.40;;;;;;5102084;27;1158566;-63
2021/12/17 12:24:16;;;;;;;1.27;0.60;;;22.30;44.20;;;;;;5117760;27;20065;-64
2021/12/17 12:26:45;;;;;;;3.75;1.35;;;22.10;44.50;;;;;;5138795;27;20512;-63
2021/12/17 12:29:14;;;;;;;3.88;0.50;;;21.90;45.00;;;;;;5139470;27;20043;-65
2021/12/17 12:31:44;;;;;;;3.65;0.50;;;21.80;45.50;;;;;;5136102;27;20125;-68
2021/12/17 12:34:13;;;;;;;3.28;0.40;;;21.70;45.80;;;;;;5121930;27;20047;-66
2021/12/17 12:40:06;;;;;;;3.60;0.50;;;21.60;46.30;;;;;;5101118;27;20380;-63
2021/12/17 12:42:36;;;;;;;3.13;0.82;;;21.40;46.70;;;;;;5065101;28;20045;-62
2021/12/17 12:47:45;;;;;;;1.30;0.40;;;21.40;47.00;;;;;;5102170;27;20424;-63
2021/12/17 12:50:13;;;;;;;1.80;0.60;;;21.20;47.30;;;;;;5112215;28;20078;-64
2021/12/17 12:55:36;;;;;;;2.05;0.30;;;21.10;47.50;;;;;;5068715;28;20379;-62
2021/12/17 13:03:27;;;;;;;4.32;0.43;;;21.00;48.20;;;;;;5104902;27;20464;-65
2021/12/17 13:05:53;;;;;;;3.55;0.43;;;20.80;49.60;;;;;;5099850;28;20480;-64
2021/12/17 13:08:21;;;;;;;1.90;0.40;;;20.70;50.10;;;;;;5089417;28;20047;-64
2021/12/17 13:10:51;;;;;;;1.83;0.30;;;20.70;50.40;;;;;;5101746;28;20546;-68
2021/12/17 13:13:39;;;;;;;1.33;0.40;;;20.70;50.80;;;;;;5106880;28;20052;-64
2021/12/17 13:22:01;;;;;;;7.95;0.60;;;20.50;51.20;;;;;;5118998;27;20054;-64
2021/12/17 13:24:23;;;;;;;8.55;0.75;;;20.50;51.20;;;;;;5135404;27;20097;-66
2021/12/17 13:26:50;;;;;;;;;;;20.50;51.50;;;;;;5122684;27;20045;-65
2021/12/17 13:29:24;;;;;;;4.72;0.63;;;20.50;51.10;;;;;;5118914;27;19924;-64
2021/12/17 13:34:49;;;;;;;5.35;0.50;;;20.50;51.60;;;;;;5008247;27;4206456;-65
2021/12/17 13:39:57;;;;;;;4.05;0.55;;;20.50;51.70;;;;;;5100700;27;20904;-64
2021/12/17 13:50:30;;;;;;;4.60;0.70;;;20.40;51.70;;;;;;5099311;27;20376;-64
2021/12/17 13:52:59;;;;;;;5.70;0.65;;;20.40;51.60;;;;;;5113907;28;20066;-64
2021/12/17 13:58:11;;;;;;;5.18;0.28;;;20.40;51.80;;;;;;5112794;27;20439;-64
2021/12/17 14:00:43;;;;;;;4.72;0.20;;;20.40;52.00;;;;;;5108841;27;20055;-63
2021/12/17 14:03:11;;;;;;;4.47;0.73;;;20.40;51.80;;;;;;5111072;27;20082;-64
2021/12/17 14:05:40;;;;;;;2.00;0.30;;;20.40;51.80;;;;;;5110232;27;20042;-63
2021/12/17 14:08:09;;;;;;;9.32;0.60;;;20.40;51.80;;;;;;5107285;27;20056;-63
2021/12/17 14:10:36;;;;;;;2.65;0.20;;;20.30;51.70;;;;;;5131505;27;20036;-63
2021/12/17 14:13:14;;;;;;;2.70;0.20;;;20.20;51.60;;;;;;5113169;27;20054;-63
2021/12/17 14:15:43;;;;;;;0.68;0.30;;;20.30;51.50;;;;;;5109638;27;20415;-63
2021/12/17 14:18:10;;;;;;;1.00;0.28;;;20.10;51.20;;;;;;5109242;27;20042;-63
2021/12/17 14:20:46;;;;;;;0.70;0.10;;;20.00;51.00;;;;;;5111490;28;20084;-63
2021/12/17 14:23:16;;;;;;;1.02;0.10;;;20.00;50.70;;;;;;5110065;28;20074;-63
2021/12/17 14:25:45;;;;;;;1.10;0.20;;;20.00;50.80;;;;;;5109167;27;20166;-63
2021/12/17 14:28:30;;;;;;;0.60;0.10;;;20.10;50.80;;;;;;5115475;27;20032;-63
2021/12/17 14:33:41;;;;;;;2.85;0.52;;;20.10;50.60;;;;;;5106715;27;20379;-63
2021/12/17 14:36:10;;;;;;;2.00;0.20;;;20.20;50.50;;;;;;5098570;28;20035;-62
2021/12/17 14:44:01;;;;;;;5.65;0.17;;;20.20;50.50;;;;;;5105713;27;20934;-63
2021/12/17 14:46:44;;;;;;;2.22;0.32;;;20.30;50.30;;;;;;5105274;28;20102;-63
2021/12/17 15:03:21;;;;;;;1.30;0.00;;;20.30;50.30;;;;;;5126353;27;20393;-64
2021/12/17 15:05:47;;;;;;;0.85;0.00;;;20.30;50.30;;;;;;5124340;28;20086;-64
2021/12/17 15:08:13;;;;;;;0.38;0.00;;;20.30;50.30;;;;;;5124922;27;20065;-62
2021/12/17 15:10:38;;;;;;;0.50;0.08;;;20.20;50.20;;;;;;5126170;28;20039;-62
2021/12/17 15:13:06;;;;;;;1.55;0.10;;;20.20;50.30;;;;;;5125784;28;20117;-64
2021/12/17 15:15:35;;;;;;;0.10;0.00;;;20.20;50.40;;;;;;5126761;27;20043;-64
2021/12/17 15:18:03;;;;;;;1.35;0.00;;;20.20;50.50;;;;;;5126624;28;20077;-64
2021/12/17 15:20:31;;;;;;;0.20;0.20;;;20.10;50.50;;;;;;5127877;27;20096;-64
2021/12/17 15:23:00;;;;;;;1.45;0.00;;;20.10;50.60;;;;;;5127749;27;20043;-63
2021/12/17 15:25:27;;;;;;;0.47;0.25;;;20.10;50.70;;;;;;5126312;28;20035;-64
2021/12/17 15:27:53;;;;;;;0.40;0.00;;;20.00;50.80;;;;;;5127247;27;20046;-63
2021/12/17 15:30:24;;;;;;;1.33;0.00;;;19.90;50.90;;;;;;5124872;28;20088;-63
2021/12/17 15:32:50;;;;;;;;;;;19.90;51.00;;;;;;5125502;27;20095;-64
2021/12/17 15:35:19;;;;;;;1.15;0.00;;;19.90;50.90;;;;;;5127060;28;20522;-62
2021/12/17 15:37:45;;;;;;;2.08;0.10;;;19.80;51.10;;;;;;5126518;27;20043;-64
2021/12/17 15:40:12;;;;;;;0.45;0.00;;;19.80;51.30;;;;;;5126746;28;20532;-63
2021/12/17 15:42:38;;;;;;;0.10;0.00;;;19.70;51.40;;;;;;5126746;28;20180;-63
2021/12/17 15:45:11;;;;;;;0.30;0.00;;;19.70;51.40;;;;;;5128500;27;20039;-64
2021/12/17 15:47:40;;;;;;;0.38;0.00;;;19.70;51.60;;;;;;5128234;27;20079;-64
2021/12/17 15:50:07;;;;;;;0.20;0.00;;;19.60;51.60;;;;;;5128342;28;20067;-63
2021/12/17 15:52:34;;;;;;;0.35;0.00;;;19.60;51.70;;;;;;5127459;27;20043;-63
2021/12/17 15:55:00;;;;;;;0.55;0.00;;;19.60;51.80;;;;;;5127852;27;20650;-64
2021/12/17 15:57:26;;;;;;;0.28;0.00;;;19.50;51.80;;;;;;5125512;28;20047;-63
2021/12/17 15:59:54;;;;;;;0.10;0.00;;;19.50;51.90;;;;;;5124710;28;20039;-64
2021/12/17 16:02:20;;;;;;;0.15;0.00;;;19.50;51.90;;;;;;5124765;28;20611;-63
2021/12/17 16:04:47;;;;;;;0.73;0.00;;;19.50;52.00;;;;;;5125374;28;20134;-64
2021/12/17 16:07:14;;;;;;;0.28;0.00;;;19.50;52.00;;;;;;5126088;28;20054;-64
2021/12/17 16:21:10;;;;;;;0.20;0.00;;;19.30;52.20;;;;;;5086168;28;20060;-63
2021/12/17 16:23:24;;;;;;;0.05;0.00;;;19.30;52.30;;;;;;5085877;28;20052;-63
2021/12/17 16:25:50;;;;;;;0.10;0.00;;;19.30;52.30;;;;;;5088345;28;20044;-62
2021/12/17 16:28:16;;;;;;;0.10;0.00;;;19.30;52.30;;;;;;5087263;28;20041;-62
2021/12/17 16:30:44;;;;;;;0.80;0.00;;;19.20;52.30;;;;;;5086835;28;20082;-62
2021/12/17 16:33:10;;;;;;;0.65;0.10;;;19.30;52.40;;;;;;5087191;28;20036;-63
2021/12/17 16:35:42;;;;;;;0.38;0.00;;;19.20;52.40;;;;;;5086988;28;20506;-62
2021/12/17 16:38:07;;;;;;;0.10;0.00;;;19.20;52.40;;;;;;5087993;28;20037;-63
2021/12/17 16:40:33;;;;;;;0.10;0.00;;;19.20;52.50;;;;;;5087584;28;20123;-63
2021/12/17 16:43:00;;;;;;;0.03;0.00;;;19.20;52.50;;;;;;5086603;28;20106;-62
2021/12/17 16:45:41;;;;;;;0.25;0.00;;;19.20;52.50;;;;;;5088200;28;20043;-63
2021/12/17 16:48:06;;;;;;;0.08;0.00;;;19.20;52.50;;;;;;5088441;28;20125;-62
2021/12/17 16:50:34;;;;;;;0.15;0.00;;;19.10;52.40;;;;;;5087098;28;20132;-63
2021/12/17 16:53:03;;;;;;;0.40;0.10;;;19.10;52.50;;;;;;5088508;28;20075;-63
2021/12/17 16:55:30;;;;;;;0.10;0.00;;;19.10;52.60;;;;;;5086919;28;20049;-62
2021/12/17 16:57:56;;;;;;;0.30;0.00;;;19.10;52.50;;;;;;5069997;28;20040;-63
2021/12/17 17:00:23;;;;;;;0.17;0.10;;;19.10;52.50;;;;;;5086486;28;20124;-62
2021/12/17 17:02:50;;;;;;;0.13;0.00;;;19.10;52.50;;;;;;5086706;28;20055;-63